Airfield :
LOGIN :

Register | Disclaimer

   EN    FR    IT 

 










Legend :    VFR   Marginal VFR   IFR   Intensive IFR   Very Intensive IFR
Visi :
Ceiling :
>= 8 km
>= 3000ft
5 to 8 km
1000 to 3000 ft
1500m to 5 km
500 to 1000 ft
800 to 1500m
200 to 500 ft
< 800m
< 200 ft
Symbols :   Thunderstorms  Fog  Heavy snow  Heavy precipitations  Wind > 20 kt
SIGMETs :     Misc.  Thunderstorms  Icing  Turbulence  Mountain Waves  Volcanic Ashes






- Airport Elevation : 357 ft
- IATA code : TUF


LFOT - Tours

CURRENT METAR :
  • 280600Z AUTO 24014KT 4200 RA BR OVC005/// ///TCU 11/11 Q1011 TEMPO 23015G30KT

EXPIRED METARs :
  • 280530Z AUTO 24015KT 9000 -RA OVC006/// ///TCU 11/11 Q1012 TEMPO 23015G30KT 3000 RA BKN004TCU
  • 280500Z AUTO 24016KT 4300 -DZ BR OVC005 11/11 Q1012 BECMG 24015G25KT 6000 NSW
  • 280430Z AUTO 24014KT 4400 -DZ BR OVC004 11/11 Q1012 BECMG 24015G25KT 6000 NSW BKN006
  • 280400Z AUTO 24015KT 3500 DZ BR OVC004 11/11 Q1012 BECMG 24015G25KT 6000 NSW BKN006
  • 280330Z AUTO 23013KT 3800 -DZ BR OVC004 11/11 Q1012 BECMG 24015G25KT 6000 NSW BKN006

TAF TAF LFOT
Valid from the 28 at 06:00 until the 29 at 06:00 UTC


280500Z 2806/2906 23010KT 9999 BKN006
PROB40
TEMPO 2806/2810 23015G30KT 3000 RA BKN004TCU
PROB40
TEMPO 2811/2901 3000 -RADZ BKN004
BECMG 2901/2903 BKN020
PROB30
TEMPO 2902/2904 26015G30KT



MET'MAP, your aeronautical weather chart ! - Copyright ORBIFLY December 2007 - Disclaimer

ORBIFLY MET'MAP TEAM :

Programming & Development : Alexandra Zaïnal
Concept & original design : Baudouin d'Aumeries
Assistance for programming : Marc-Olivier Méhu
Technical & hardware support : Manuel Goepfert

Contact : metmap@orbifly.com




SOURCES & CREDITS :

   NOAA